sensor_id;sensor_type;location;lat;lon;timestamp;P1;durP1;ratioP1;P2;durP2;ratioP2
249;SDS011;109;19.806;-70.704;2022-12-29T00:01:57;19.13;;;5.27;;
249;SDS011;109;19.806;-70.704;2022-12-29T00:04:24;22.97;;;6.20;;
249;SDS011;109;19.806;-70.704;2022-12-29T00:06:51;17.50;;;5.90;;
249;SDS011;109;19.806;-70.704;2022-12-29T00:09:18;15.80;;;6.87;;
249;SDS011;109;19.806;-70.704;2022-12-29T00:11:45;15.57;;;5.83;;
249;SDS011;109;19.806;-70.704;2022-12-29T00:14:11;20.73;;;5.83;;
249;SDS011;109;19.806;-70.704;2022-12-29T00:16:57;13.93;;;4.80;;
249;SDS011;109;19.806;-70.704;2022-12-29T00:19:23;16.50;;;5.20;;
249;SDS011;109;19.806;-70.704;2022-12-29T00:22:09;19.57;;;4.57;;
249;SDS011;109;19.806;-70.704;2022-12-29T00:24:55;21.30;;;5.40;;
249;SDS011;109;19.806;-70.704;2022-12-29T00:27:31;14.83;;;5.20;;
249;SDS011;109;19.806;-70.704;2022-12-29T00:30:23;14.70;;;4.20;;
249;SDS011;109;19.806;-70.704;2022-12-29T00:33:25;17.00;;;3.90;;
249;SDS011;109;19.806;-70.704;2022-12-29T00:39:07;16.43;;;4.40;;
249;SDS011;109;19.806;-70.704;2022-12-29T00:42:05;13.13;;;3.80;;
249;SDS011;109;19.806;-70.704;2022-12-29T00:44:59;13.47;;;4.50;;
249;SDS011;109;19.806;-70.704;2022-12-29T00:47:25;11.87;;;4.17;;
249;SDS011;109;19.806;-70.704;2022-12-29T00:49:59;20.77;;;4.77;;
249;SDS011;109;19.806;-70.704;2022-12-29T00:52:26;13.97;;;4.30;;
249;SDS011;109;19.806;-70.704;2022-12-29T00:55:00;16.30;;;4.03;;
249;SDS011;109;19.806;-70.704;2022-12-29T00:57:26;17.17;;;4.67;;
249;SDS011;109;19.806;-70.704;2022-12-29T01:00:00;12.87;;;4.10;;
249;SDS011;109;19.806;-70.704;2022-12-29T01:02:28;12.23;;;4.93;;
249;SDS011;109;19.806;-70.704;2022-12-29T01:05:03;16.73;;;5.00;;
249;SDS011;109;19.806;-70.704;2022-12-29T01:07:30;16.83;;;4.67;;
249;SDS011;109;19.806;-70.704;2022-12-29T01:10:03;25.07;;;5.00;;
249;SDS011;109;19.806;-70.704;2022-12-29T01:12:42;13.53;;;4.60;;
249;SDS011;109;19.806;-70.704;2022-12-29T01:15:12;16.73;;;4.37;;
249;SDS011;109;19.806;-70.704;2022-12-29T01:17:47;20.20;;;5.30;;
249;SDS011;109;19.806;-70.704;2022-12-29T01:20:21;18.13;;;5.57;;
249;SDS011;109;19.806;-70.704;2022-12-29T01:22:55;22.27;;;5.53;;
249;SDS011;109;19.806;-70.704;2022-12-29T01:25:22;22.00;;;6.40;;
249;SDS011;109;19.806;-70.704;2022-12-29T01:27:58;20.63;;;5.73;;
249;SDS011;109;19.806;-70.704;2022-12-29T01:30:25;21.13;;;5.43;;
249;SDS011;109;19.806;-70.704;2022-12-29T01:32:58;21.40;;;6.13;;
249;SDS011;109;19.806;-70.704;2022-12-29T01:35:38;22.40;;;5.87;;
249;SDS011;109;19.806;-70.704;2022-12-29T01:38:05;20.80;;;5.60;;
249;SDS011;109;19.806;-70.704;2022-12-29T01:40:52;18.77;;;7.17;;
249;SDS011;109;19.806;-70.704;2022-12-29T01:43:38;15.80;;;6.43;;
249;SDS011;109;19.806;-70.704;2022-12-29T01:46:28;17.93;;;6.03;;
249;SDS011;109;19.806;-70.704;2022-12-29T01:49:20;17.43;;;5.60;;
249;SDS011;109;19.806;-70.704;2022-12-29T01:52:09;13.43;;;5.60;;
249;SDS011;109;19.806;-70.704;2022-12-29T01:54:40;19.23;;;5.97;;
249;SDS011;109;19.806;-70.704;2022-12-29T01:57:24;18.93;;;5.50;;
249;SDS011;109;19.806;-70.704;2022-12-29T02:00:10;18.20;;;5.97;;
249;SDS011;109;19.806;-70.704;2022-12-29T02:02:47;19.50;;;6.20;;
249;SDS011;109;19.806;-70.704;2022-12-29T02:05:45;15.70;;;5.83;;
249;SDS011;109;19.806;-70.704;2022-12-29T02:08:23;19.97;;;5.13;;
249;SDS011;109;19.806;-70.704;2022-12-29T02:11:08;24.97;;;6.30;;
249;SDS011;109;19.806;-70.704;2022-12-29T02:13:34;14.43;;;5.03;;
249;SDS011;109;19.806;-70.704;2022-12-29T02:16:21;15.97;;;5.40;;
249;SDS011;109;19.806;-70.704;2022-12-29T02:22:46;16.17;;;4.50;;
249;SDS011;109;19.806;-70.704;2022-12-29T02:32:21;10.00;;;3.90;;
249;SDS011;109;19.806;-70.704;2022-12-29T02:38:25;11.93;;;4.17;;
249;SDS011;109;19.806;-70.704;2022-12-29T02:47:35;13.30;;;3.70;;
249;SDS011;109;19.806;-70.704;2022-12-29T02:50:40;12.80;;;3.80;;
249;SDS011;109;19.806;-70.704;2022-12-29T02:53:23;11.33;;;3.57;;
249;SDS011;109;19.806;-70.704;2022-12-29T02:56:23;8.70;;;3.47;;
249;SDS011;109;19.806;-70.704;2022-12-29T02:58:51;11.33;;;3.50;;
249;SDS011;109;19.806;-70.704;2022-12-29T03:11:09;15.30;;;3.77;;
249;SDS011;109;19.806;-70.704;2022-12-29T03:14:47;17.07;;;3.90;;
249;SDS011;109;19.806;-70.704;2022-12-29T03:17:35;12.30;;;3.53;;
249;SDS011;109;19.806;-70.704;2022-12-29T03:20:38;8.60;;;3.83;;
249;SDS011;109;19.806;-70.704;2022-12-29T03:23:23;11.43;;;3.90;;
249;SDS011;109;19.806;-70.704;2022-12-29T03:26:06;16.50;;;4.20;;
249;SDS011;109;19.806;-70.704;2022-12-29T03:28:45;11.17;;;3.77;;
249;SDS011;109;19.806;-70.704;2022-12-29T03:31:37;14.10;;;3.70;;
249;SDS011;109;19.806;-70.704;2022-12-29T03:34:19;17.70;;;4.13;;
249;SDS011;109;19.806;-70.704;2022-12-29T03:37:12;17.93;;;4.77;;
249;SDS011;109;19.806;-70.704;2022-12-29T03:39:57;13.67;;;3.63;;
249;SDS011;109;19.806;-70.704;2022-12-29T03:42:25;10.47;;;3.80;;
249;SDS011;109;19.806;-70.704;2022-12-29T03:45:08;12.73;;;3.90;;
249;SDS011;109;19.806;-70.704;2022-12-29T03:47:37;12.37;;;4.13;;
249;SDS011;109;19.806;-70.704;2022-12-29T03:50:17;11.03;;;3.63;;
249;SDS011;109;19.806;-70.704;2022-12-29T03:52:44;10.17;;;3.73;;
249;SDS011;109;19.806;-70.704;2022-12-29T03:55:26;16.50;;;3.80;;
249;SDS011;109;19.806;-70.704;2022-12-29T03:57:53;14.70;;;4.33;;
249;SDS011;109;19.806;-70.704;2022-12-29T04:00:48;12.20;;;4.23;;
249;SDS011;109;19.806;-70.704;2022-12-29T04:03:22;14.93;;;3.53;;
249;SDS011;109;19.806;-70.704;2022-12-29T04:06:03;12.50;;;3.50;;
249;SDS011;109;19.806;-70.704;2022-12-29T04:08:45;20.40;;;3.90;;
249;SDS011;109;19.806;-70.704;2022-12-29T04:11:28;20.30;;;3.93;;
249;SDS011;109;19.806;-70.704;2022-12-29T04:13:55;17.07;;;4.70;;
249;SDS011;109;19.806;-70.704;2022-12-29T04:16:35;8.80;;;3.13;;
249;SDS011;109;19.806;-70.704;2022-12-29T04:19:05;11.20;;;3.90;;
249;SDS011;109;19.806;-70.704;2022-12-29T04:21:48;14.13;;;3.70;;
249;SDS011;109;19.806;-70.704;2022-12-29T04:24:14;9.53;;;3.27;;
249;SDS011;109;19.806;-70.704;2022-12-29T04:26:55;6.93;;;3.30;;
249;SDS011;109;19.806;-70.704;2022-12-29T04:29:35;13.77;;;3.50;;
249;SDS011;109;19.806;-70.704;2022-12-29T04:32:44;10.10;;;3.30;;
249;SDS011;109;19.806;-70.704;2022-12-29T04:35:24;12.97;;;3.53;;
249;SDS011;109;19.806;-70.704;2022-12-29T04:37:50;13.97;;;3.60;;
249;SDS011;109;19.806;-70.704;2022-12-29T04:40:30;14.80;;;3.90;;
249;SDS011;109;19.806;-70.704;2022-12-29T04:42:56;12.00;;;3.50;;
249;SDS011;109;19.806;-70.704;2022-12-29T04:45:55;11.93;;;3.87;;
249;SDS011;109;19.806;-70.704;2022-12-29T04:48:35;12.13;;;3.50;;
249;SDS011;109;19.806;-70.704;2022-12-29T04:51:44;10.57;;;3.50;;
249;SDS011;109;19.806;-70.704;2022-12-29T04:54:25;18.67;;;3.70;;
249;SDS011;109;19.806;-70.704;2022-12-29T04:57:10;19.20;;;4.80;;
249;SDS011;109;19.806;-70.704;2022-12-29T04:59:54;17.47;;;4.37;;
249;SDS011;109;19.806;-70.704;2022-12-29T05:02:27;25.97;;;4.90;;
249;SDS011;109;19.806;-70.704;2022-12-29T05:05:08;24.20;;;5.30;;
249;SDS011;109;19.806;-70.704;2022-12-29T05:07:39;17.70;;;3.93;;
249;SDS011;109;19.806;-70.704;2022-12-29T05:10:19;24.80;;;4.60;;
249;SDS011;109;19.806;-70.704;2022-12-29T05:12:50;14.13;;;4.20;;
249;SDS011;109;19.806;-70.704;2022-12-29T05:15:30;24.63;;;5.70;;
249;SDS011;109;19.806;-70.704;2022-12-29T05:17:57;21.47;;;4.73;;
249;SDS011;109;19.806;-70.704;2022-12-29T05:20:38;15.43;;;4.10;;
249;SDS011;109;19.806;-70.704;2022-12-29T05:23:05;19.03;;;5.43;;
249;SDS011;109;19.806;-70.704;2022-12-29T05:25:51;21.03;;;4.50;;
249;SDS011;109;19.806;-70.704;2022-12-29T05:28:32;11.43;;;3.90;;
249;SDS011;109;19.806;-70.704;2022-12-29T05:31:23;26.37;;;4.70;;
249;SDS011;109;19.806;-70.704;2022-12-29T05:33:57;25.73;;;4.70;;
249;SDS011;109;19.806;-70.704;2022-12-29T05:36:39;16.20;;;4.70;;
249;SDS011;109;19.806;-70.704;2022-12-29T05:39:16;23.40;;;5.40;;
249;SDS011;109;19.806;-70.704;2022-12-29T05:41:59;21.80;;;4.70;;
249;SDS011;109;19.806;-70.704;2022-12-29T05:44:35;21.67;;;5.00;;
249;SDS011;109;19.806;-70.704;2022-12-29T05:47:33;25.13;;;5.47;;
249;SDS011;109;19.806;-70.704;2022-12-29T05:50:31;20.23;;;4.83;;
249;SDS011;109;19.806;-70.704;2022-12-29T05:53:15;25.03;;;5.10;;
249;SDS011;109;19.806;-70.704;2022-12-29T05:55:56;28.73;;;5.47;;
249;SDS011;109;19.806;-70.704;2022-12-29T05:58:23;21.23;;;6.13;;
249;SDS011;109;19.806;-70.704;2022-12-29T06:01:03;31.60;;;6.33;;
249;SDS011;109;19.806;-70.704;2022-12-29T06:03:30;31.97;;;6.13;;
249;SDS011;109;19.806;-70.704;2022-12-29T06:06:10;21.83;;;5.43;;
249;SDS011;109;19.806;-70.704;2022-12-29T06:08:36;25.03;;;5.43;;
249;SDS011;109;19.806;-70.704;2022-12-29T06:11:18;27.40;;;6.00;;
249;SDS011;109;19.806;-70.704;2022-12-29T06:13:50;19.03;;;4.80;;
249;SDS011;109;19.806;-70.704;2022-12-29T06:16:31;20.20;;;5.50;;
249;SDS011;109;19.806;-70.704;2022-12-29T06:19:00;32.27;;;5.40;;
249;SDS011;109;19.806;-70.704;2022-12-29T06:21:40;22.30;;;4.97;;
249;SDS011;109;19.806;-70.704;2022-12-29T06:24:08;41.80;;;6.53;;
249;SDS011;109;19.806;-70.704;2022-12-29T06:26:56;31.90;;;5.07;;
249;SDS011;109;19.806;-70.704;2022-12-29T06:29:30;36.93;;;5.30;;
249;SDS011;109;19.806;-70.704;2022-12-29T06:32:18;33.70;;;6.27;;
249;SDS011;109;19.806;-70.704;2022-12-29T06:35:03;24.50;;;5.20;;
249;SDS011;109;19.806;-70.704;2022-12-29T06:37:45;22.93;;;4.70;;
249;SDS011;109;19.806;-70.704;2022-12-29T06:40:25;27.33;;;5.80;;
249;SDS011;109;19.806;-70.704;2022-12-29T06:43:14;27.20;;;5.57;;
249;SDS011;109;19.806;-70.704;2022-12-29T06:46:18;31.30;;;5.30;;
249;SDS011;109;19.806;-70.704;2022-12-29T06:48:52;24.47;;;5.00;;
249;SDS011;109;19.806;-70.704;2022-12-29T06:51:32;28.40;;;5.97;;
249;SDS011;109;19.806;-70.704;2022-12-29T06:53:58;20.93;;;5.37;;
249;SDS011;109;19.806;-70.704;2022-12-29T06:56:38;19.27;;;4.80;;
249;SDS011;109;19.806;-70.704;2022-12-29T06:59:04;29.47;;;5.70;;
249;SDS011;109;19.806;-70.704;2022-12-29T07:01:45;21.50;;;5.10;;
249;SDS011;109;19.806;-70.704;2022-12-29T07:04:11;28.07;;;4.80;;
249;SDS011;109;19.806;-70.704;2022-12-29T07:06:51;21.50;;;5.00;;
249;SDS011;109;19.806;-70.704;2022-12-29T07:09:17;22.17;;;5.10;;
249;SDS011;109;19.806;-70.704;2022-12-29T07:11:58;27.87;;;4.40;;
249;SDS011;109;19.806;-70.704;2022-12-29T07:14:25;25.10;;;5.60;;
249;SDS011;109;19.806;-70.704;2022-12-29T07:17:06;24.27;;;4.70;;
249;SDS011;109;19.806;-70.704;2022-12-29T07:19:46;23.87;;;7.00;;
249;SDS011;109;19.806;-70.704;2022-12-29T07:22:18;22.20;;;4.07;;
249;SDS011;109;19.806;-70.704;2022-12-29T07:24:58;22.40;;;4.20;;
249;SDS011;109;19.806;-70.704;2022-12-29T07:27:24;32.60;;;5.20;;
249;SDS011;109;19.806;-70.704;2022-12-29T07:30:04;28.93;;;5.67;;
249;SDS011;109;19.806;-70.704;2022-12-29T07:32:34;33.00;;;5.30;;
249;SDS011;109;19.806;-70.704;2022-12-29T07:35:21;27.20;;;5.27;;
249;SDS011;109;19.806;-70.704;2022-12-29T07:37:55;24.20;;;5.23;;
249;SDS011;109;19.806;-70.704;2022-12-29T07:40:35;29.77;;;5.80;;
249;SDS011;109;19.806;-70.704;2022-12-29T07:43:01;30.50;;;6.33;;
249;SDS011;109;19.806;-70.704;2022-12-29T07:46:01;35.53;;;5.00;;
249;SDS011;109;19.806;-70.704;2022-12-29T07:48:34;32.00;;;5.17;;
249;SDS011;109;19.806;-70.704;2022-12-29T07:51:15;21.40;;;5.57;;
249;SDS011;109;19.806;-70.704;2022-12-29T07:53:41;32.20;;;5.07;;
249;SDS011;109;19.806;-70.704;2022-12-29T07:56:21;27.97;;;4.60;;
249;SDS011;109;19.806;-70.704;2022-12-29T07:58:47;26.70;;;4.73;;
249;SDS011;109;19.806;-70.704;2022-12-29T08:01:27;21.80;;;5.43;;
249;SDS011;109;19.806;-70.704;2022-12-29T08:03:53;21.37;;;5.10;;
249;SDS011;109;19.806;-70.704;2022-12-29T08:06:34;26.10;;;5.30;;
249;SDS011;109;19.806;-70.704;2022-12-29T08:09:00;29.43;;;4.70;;
249;SDS011;109;19.806;-70.704;2022-12-29T08:11:48;19.13;;;4.37;;
249;SDS011;109;19.806;-70.704;2022-12-29T08:14:21;16.63;;;4.80;;
249;SDS011;109;19.806;-70.704;2022-12-29T08:17:01;26.27;;;4.53;;
249;SDS011;109;19.806;-70.704;2022-12-29T08:19:28;20.10;;;4.40;;
249;SDS011;109;19.806;-70.704;2022-12-29T08:22:08;30.43;;;4.93;;
249;SDS011;109;19.806;-70.704;2022-12-29T08:24:35;20.30;;;4.60;;
249;SDS011;109;19.806;-70.704;2022-12-29T08:27:15;19.77;;;4.67;;
249;SDS011;109;19.806;-70.704;2022-12-29T08:29:55;28.83;;;4.93;;
249;SDS011;109;19.806;-70.704;2022-12-29T08:32:21;24.50;;;4.00;;
249;SDS011;109;19.806;-70.704;2022-12-29T08:35:08;23.37;;;4.67;;
249;SDS011;109;19.806;-70.704;2022-12-29T08:37:41;18.10;;;4.97;;
249;SDS011;109;19.806;-70.704;2022-12-29T08:40:22;28.43;;;5.13;;
249;SDS011;109;19.806;-70.704;2022-12-29T08:42:48;40.10;;;5.67;;
249;SDS011;109;19.806;-70.704;2022-12-29T08:45:28;28.83;;;6.10;;
249;SDS011;109;19.806;-70.704;2022-12-29T08:47:54;24.93;;;4.03;;
249;SDS011;109;19.806;-70.704;2022-12-29T08:50:34;18.43;;;4.23;;
249;SDS011;109;19.806;-70.704;2022-12-29T08:53:00;26.03;;;5.10;;
249;SDS011;109;19.806;-70.704;2022-12-29T08:55:41;18.43;;;4.40;;
249;SDS011;109;19.806;-70.704;2022-12-29T08:58:15;27.00;;;4.70;;
249;SDS011;109;19.806;-70.704;2022-12-29T09:00:56;18.70;;;4.17;;
249;SDS011;109;19.806;-70.704;2022-12-29T09:03:23;29.63;;;5.17;;
249;SDS011;109;19.806;-70.704;2022-12-29T09:06:04;20.87;;;4.53;;
249;SDS011;109;19.806;-70.704;2022-12-29T09:08:31;36.97;;;5.57;;
249;SDS011;109;19.806;-70.704;2022-12-29T09:13:50;29.93;;;5.10;;
249;SDS011;109;19.806;-70.704;2022-12-29T09:16:31;30.83;;;5.70;;
249;SDS011;109;19.806;-70.704;2022-12-29T09:18:58;28.37;;;5.03;;
249;SDS011;109;19.806;-70.704;2022-12-29T09:33:38;31.00;;;5.63;;
249;SDS011;109;19.806;-70.704;2022-12-29T09:36:19;16.30;;;3.57;;
249;SDS011;109;19.806;-70.704;2022-12-29T09:38:45;26.83;;;4.73;;
249;SDS011;109;19.806;-70.704;2022-12-29T09:41:29;26.70;;;5.57;;
249;SDS011;109;19.806;-70.704;2022-12-29T09:47:17;17.73;;;4.80;;
249;SDS011;109;19.806;-70.704;2022-12-29T09:49:47;26.37;;;4.90;;
249;SDS011;109;19.806;-70.704;2022-12-29T09:52:34;26.50;;;5.00;;
249;SDS011;109;19.806;-70.704;2022-12-29T09:55:20;27.80;;;5.53;;
249;SDS011;109;19.806;-70.704;2022-12-29T09:58:14;33.80;;;5.87;;
249;SDS011;109;19.806;-70.704;2022-12-29T10:03:50;21.90;;;4.43;;
249;SDS011;109;19.806;-70.704;2022-12-29T10:10:10;20.03;;;4.23;;
249;SDS011;109;19.806;-70.704;2022-12-29T10:15:49;24.80;;;4.27;;
249;SDS011;109;19.806;-70.704;2022-12-29T10:18:38;26.40;;;5.07;;
249;SDS011;109;19.806;-70.704;2022-12-29T10:24:34;28.97;;;4.73;;
249;SDS011;109;19.806;-70.704;2022-12-29T10:27:17;23.00;;;4.80;;
249;SDS011;109;19.806;-70.704;2022-12-29T10:29:45;31.00;;;6.20;;
249;SDS011;109;19.806;-70.704;2022-12-29T10:35:36;18.70;;;4.37;;
249;SDS011;109;19.806;-70.704;2022-12-29T10:38:34;15.27;;;3.70;;
249;SDS011;109;19.806;-70.704;2022-12-29T10:41:26;20.83;;;3.80;;
249;SDS011;109;19.806;-70.704;2022-12-29T10:44:07;20.70;;;4.53;;
249;SDS011;109;19.806;-70.704;2022-12-29T10:46:55;22.80;;;4.93;;
249;SDS011;109;19.806;-70.704;2022-12-29T10:49:36;29.13;;;4.83;;
249;SDS011;109;19.806;-70.704;2022-12-29T10:52:20;12.20;;;3.77;;
249;SDS011;109;19.806;-70.704;2022-12-29T10:58:11;18.07;;;4.20;;
249;SDS011;109;19.806;-70.704;2022-12-29T11:00:53;16.70;;;3.57;;
249;SDS011;109;19.806;-70.704;2022-12-29T11:06:15;19.00;;;4.23;;
249;SDS011;109;19.806;-70.704;2022-12-29T11:08:59;17.13;;;4.10;;
249;SDS011;109;19.806;-70.704;2022-12-29T11:11:35;24.73;;;4.20;;
249;SDS011;109;19.806;-70.704;2022-12-29T11:16:40;25.17;;;4.83;;
249;SDS011;109;19.806;-70.704;2022-12-29T11:19:23;11.57;;;3.60;;
249;SDS011;109;19.806;-70.704;2022-12-29T11:21:52;17.67;;;4.30;;
249;SDS011;109;19.806;-70.704;2022-12-29T11:24:22;15.27;;;4.17;;
249;SDS011;109;19.806;-70.704;2022-12-29T11:26:53;35.53;;;4.27;;
249;SDS011;109;19.806;-70.704;2022-12-29T11:29:27;15.83;;;3.60;;
249;SDS011;109;19.806;-70.704;2022-12-29T11:31:55;15.00;;;3.47;;
249;SDS011;109;19.806;-70.704;2022-12-29T11:34:25;13.80;;;3.73;;
249;SDS011;109;19.806;-70.704;2022-12-29T11:37:00;16.20;;;3.40;;
249;SDS011;109;19.806;-70.704;2022-12-29T11:39:45;12.20;;;4.37;;
249;SDS011;109;19.806;-70.704;2022-12-29T11:42:22;18.33;;;5.97;;
249;SDS011;109;19.806;-70.704;2022-12-29T11:45:03;20.40;;;6.03;;
249;SDS011;109;19.806;-70.704;2022-12-29T11:47:52;16.03;;;4.33;;
249;SDS011;109;19.806;-70.704;2022-12-29T11:50:24;19.30;;;4.90;;
249;SDS011;109;19.806;-70.704;2022-12-29T11:53:01;15.57;;;3.80;;
249;SDS011;109;19.806;-70.704;2022-12-29T11:55:50;10.60;;;3.87;;
249;SDS011;109;19.806;-70.704;2022-12-29T11:58:28;13.77;;;3.47;;
249;SDS011;109;19.806;-70.704;2022-12-29T12:01:21;21.10;;;3.87;;
249;SDS011;109;19.806;-70.704;2022-12-29T12:03:56;19.67;;;4.07;;
249;SDS011;109;19.806;-70.704;2022-12-29T12:06:28;18.07;;;4.00;;
249;SDS011;109;19.806;-70.704;2022-12-29T12:09:02;17.73;;;5.40;;
249;SDS011;109;19.806;-70.704;2022-12-29T12:11:40;23.53;;;4.63;;
249;SDS011;109;19.806;-70.704;2022-12-29T12:17:11;16.30;;;4.40;;
249;SDS011;109;19.806;-70.704;2022-12-29T12:20:12;22.13;;;4.33;;
249;SDS011;109;19.806;-70.704;2022-12-29T12:23:12;33.77;;;25.33;;
249;SDS011;109;19.806;-70.704;2022-12-29T12:26:02;32.47;;;30.83;;
249;SDS011;109;19.806;-70.704;2022-12-29T12:31:17;27.00;;;20.20;;
249;SDS011;109;19.806;-70.704;2022-12-29T12:33:59;44.67;;;31.43;;
249;SDS011;109;19.806;-70.704;2022-12-29T12:42:38;31.03;;;15.30;;
249;SDS011;109;19.806;-70.704;2022-12-29T12:45:30;25.97;;;13.53;;
249;SDS011;109;19.806;-70.704;2022-12-29T12:53:16;32.13;;;16.57;;
249;SDS011;109;19.806;-70.704;2022-12-29T12:56:08;23.77;;;10.53;;
249;SDS011;109;19.806;-70.704;2022-12-29T13:01:38;27.50;;;15.30;;
249;SDS011;109;19.806;-70.704;2022-12-29T13:09:59;24.27;;;11.60;;
249;SDS011;109;19.806;-70.704;2022-12-29T13:23:45;15.73;;;4.00;;
249;SDS011;109;19.806;-70.704;2022-12-29T13:26:28;22.37;;;6.60;;
249;SDS011;109;19.806;-70.704;2022-12-29T13:31:55;24.80;;;4.70;;
249;SDS011;109;19.806;-70.704;2022-12-29T13:37:47;18.53;;;5.63;;
249;SDS011;109;19.806;-70.704;2022-12-29T13:40:22;22.77;;;5.50;;
249;SDS011;109;19.806;-70.704;2022-12-29T13:42:51;21.20;;;5.00;;
249;SDS011;109;19.806;-70.704;2022-12-29T13:45:20;16.87;;;6.17;;
249;SDS011;109;19.806;-70.704;2022-12-29T13:50:21;53.27;;;8.17;;
249;SDS011;109;19.806;-70.704;2022-12-29T13:52:55;174.53;;;15.93;;
249;SDS011;109;19.806;-70.704;2022-12-29T13:58:25;74.83;;;13.13;;
249;SDS011;109;19.806;-70.704;2022-12-29T14:01:28;94.07;;;12.87;;
249;SDS011;109;19.806;-70.704;2022-12-29T14:04:00;163.60;;;18.53;;
249;SDS011;109;19.806;-70.704;2022-12-29T14:06:30;46.60;;;9.43;;
249;SDS011;109;19.806;-70.704;2022-12-29T14:09:25;46.67;;;8.10;;
249;SDS011;109;19.806;-70.704;2022-12-29T14:11:58;15.67;;;5.20;;
249;SDS011;109;19.806;-70.704;2022-12-29T14:14:25;21.40;;;5.40;;
249;SDS011;109;19.806;-70.704;2022-12-29T14:17:08;22.00;;;6.17;;
249;SDS011;109;19.806;-70.704;2022-12-29T14:19:38;15.90;;;6.10;;
249;SDS011;109;19.806;-70.704;2022-12-29T14:22:08;25.37;;;6.20;;
249;SDS011;109;19.806;-70.704;2022-12-29T14:34:58;20.17;;;4.00;;
249;SDS011;109;19.806;-70.704;2022-12-29T14:37:30;23.50;;;5.00;;
249;SDS011;109;19.806;-70.704;2022-12-29T15:07:17;27.10;;;4.90;;
249;SDS011;109;19.806;-70.704;2022-12-29T15:09:47;34.90;;;5.17;;
249;SDS011;109;19.806;-70.704;2022-12-29T15:14:53;32.00;;;5.77;;
249;SDS011;109;19.806;-70.704;2022-12-29T15:19:55;34.73;;;6.07;;
249;SDS011;109;19.806;-70.704;2022-12-29T15:22:23;38.33;;;6.57;;
249;SDS011;109;19.806;-70.704;2022-12-29T15:24:51;27.10;;;4.70;;
249;SDS011;109;19.806;-70.704;2022-12-29T15:27:21;30.40;;;5.70;;
249;SDS011;109;19.806;-70.704;2022-12-29T15:29:55;27.00;;;5.27;;
249;SDS011;109;19.806;-70.704;2022-12-29T15:32:28;42.43;;;6.77;;
249;SDS011;109;19.806;-70.704;2022-12-29T15:35:16;31.67;;;6.40;;
249;SDS011;109;19.806;-70.704;2022-12-29T15:37:59;28.40;;;5.40;;
249;SDS011;109;19.806;-70.704;2022-12-29T15:40:32;33.03;;;5.20;;
249;SDS011;109;19.806;-70.704;2022-12-29T15:45:30;26.70;;;4.63;;
249;SDS011;109;19.806;-70.704;2022-12-29T15:48:01;38.77;;;5.80;;
249;SDS011;109;19.806;-70.704;2022-12-29T15:50:30;27.07;;;6.00;;
249;SDS011;109;19.806;-70.704;2022-12-29T15:52:58;55.43;;;5.30;;
249;SDS011;109;19.806;-70.704;2022-12-29T15:58:03;15.93;;;3.50;;
249;SDS011;109;19.806;-70.704;2022-12-29T16:00:32;25.60;;;4.70;;
249;SDS011;109;19.806;-70.704;2022-12-29T16:03:02;30.33;;;5.00;;
249;SDS011;109;19.806;-70.704;2022-12-29T16:05:39;50.07;;;6.40;;
249;SDS011;109;19.806;-70.704;2022-12-29T16:11:01;26.43;;;4.90;;
249;SDS011;109;19.806;-70.704;2022-12-29T16:13:35;34.13;;;4.80;;
249;SDS011;109;19.806;-70.704;2022-12-29T16:19:11;30.83;;;4.97;;
249;SDS011;109;19.806;-70.704;2022-12-29T16:21:54;27.60;;;4.90;;
249;SDS011;109;19.806;-70.704;2022-12-29T16:24:25;28.53;;;5.07;;
249;SDS011;109;19.806;-70.704;2022-12-29T16:29:40;21.53;;;4.60;;
249;SDS011;109;19.806;-70.704;2022-12-29T16:32:24;31.40;;;4.90;;
249;SDS011;109;19.806;-70.704;2022-12-29T16:37:39;21.07;;;4.20;;
249;SDS011;109;19.806;-70.704;2022-12-29T16:42:54;44.07;;;5.07;;
249;SDS011;109;19.806;-70.704;2022-12-29T16:48:27;30.63;;;5.03;;
249;SDS011;109;19.806;-70.704;2022-12-29T16:53:36;29.37;;;5.80;;
249;SDS011;109;19.806;-70.704;2022-12-29T16:58:44;32.03;;;5.90;;
249;SDS011;109;19.806;-70.704;2022-12-29T17:01:13;34.33;;;5.30;;
249;SDS011;109;19.806;-70.704;2022-12-29T17:03:46;30.90;;;5.57;;
249;SDS011;109;19.806;-70.704;2022-12-29T17:06:18;31.83;;;5.27;;
249;SDS011;109;19.806;-70.704;2022-12-29T17:08:47;21.73;;;4.50;;
249;SDS011;109;19.806;-70.704;2022-12-29T17:14:17;23.63;;;5.10;;
249;SDS011;109;19.806;-70.704;2022-12-29T17:17:00;32.97;;;4.97;;
249;SDS011;109;19.806;-70.704;2022-12-29T17:19:34;39.40;;;5.17;;
249;SDS011;109;19.806;-70.704;2022-12-29T17:22:04;24.50;;;5.10;;
249;SDS011;109;19.806;-70.704;2022-12-29T17:24:37;47.20;;;8.30;;
249;SDS011;109;19.806;-70.704;2022-12-29T17:27:04;23.20;;;5.17;;
249;SDS011;109;19.806;-70.704;2022-12-29T17:29:38;29.83;;;5.53;;
249;SDS011;109;19.806;-70.704;2022-12-29T17:32:09;24.43;;;4.10;;
249;SDS011;109;19.806;-70.704;2022-12-29T17:34:39;29.23;;;4.63;;
249;SDS011;109;19.806;-70.704;2022-12-29T17:40:02;26.43;;;5.20;;
249;SDS011;109;19.806;-70.704;2022-12-29T17:42:32;26.03;;;5.27;;
249;SDS011;109;19.806;-70.704;2022-12-29T17:45:03;27.23;;;5.60;;
249;SDS011;109;19.806;-70.704;2022-12-29T17:47:30;40.43;;;5.20;;
249;SDS011;109;19.806;-70.704;2022-12-29T17:49:56;56.87;;;6.27;;
249;SDS011;109;19.806;-70.704;2022-12-29T17:52:23;41.77;;;5.97;;
249;SDS011;109;19.806;-70.704;2022-12-29T17:54:50;42.10;;;7.40;;
249;SDS011;109;19.806;-70.704;2022-12-29T17:57:18;37.00;;;5.57;;
249;SDS011;109;19.806;-70.704;2022-12-29T17:59:46;27.13;;;4.47;;
249;SDS011;109;19.806;-70.704;2022-12-29T18:02:22;32.87;;;5.20;;
249;SDS011;109;19.806;-70.704;2022-12-29T18:04:51;23.93;;;5.20;;
249;SDS011;109;19.806;-70.704;2022-12-29T18:07:18;33.17;;;4.80;;
249;SDS011;109;19.806;-70.704;2022-12-29T18:09:45;37.70;;;4.93;;
249;SDS011;109;19.806;-70.704;2022-12-29T18:12:32;31.33;;;5.40;;
249;SDS011;109;19.806;-70.704;2022-12-29T18:15:04;39.67;;;7.40;;
249;SDS011;109;19.806;-70.704;2022-12-29T18:17:32;33.80;;;5.17;;
249;SDS011;109;19.806;-70.704;2022-12-29T18:19:58;32.13;;;5.70;;
249;SDS011;109;19.806;-70.704;2022-12-29T18:22:25;50.97;;;8.50;;
249;SDS011;109;19.806;-70.704;2022-12-29T18:24:53;47.60;;;5.87;;
249;SDS011;109;19.806;-70.704;2022-12-29T18:27:20;34.10;;;6.10;;
249;SDS011;109;19.806;-70.704;2022-12-29T18:29:47;36.83;;;5.07;;
249;SDS011;109;19.806;-70.704;2022-12-29T18:32:14;33.53;;;5.77;;
249;SDS011;109;19.806;-70.704;2022-12-29T18:34:42;31.40;;;5.60;;
249;SDS011;109;19.806;-70.704;2022-12-29T18:37:09;36.30;;;7.40;;
249;SDS011;109;19.806;-70.704;2022-12-29T18:39:36;26.17;;;4.60;;
249;SDS011;109;19.806;-70.704;2022-12-29T18:42:04;36.30;;;6.23;;
249;SDS011;109;19.806;-70.704;2022-12-29T18:44:31;38.00;;;6.40;;
249;SDS011;109;19.806;-70.704;2022-12-29T18:46:58;43.13;;;6.03;;
249;SDS011;109;19.806;-70.704;2022-12-29T18:49:25;34.07;;;5.57;;
249;SDS011;109;19.806;-70.704;2022-12-29T18:51:52;50.90;;;5.70;;
249;SDS011;109;19.806;-70.704;2022-12-29T18:54:25;38.23;;;6.40;;
249;SDS011;109;19.806;-70.704;2022-12-29T18:56:52;32.33;;;6.80;;
249;SDS011;109;19.806;-70.704;2022-12-29T18:59:19;54.03;;;7.30;;
249;SDS011;109;19.806;-70.704;2022-12-29T19:01:45;34.90;;;6.43;;
249;SDS011;109;19.806;-70.704;2022-12-29T19:04:12;44.07;;;5.57;;
249;SDS011;109;19.806;-70.704;2022-12-29T19:06:39;35.77;;;5.53;;
249;SDS011;109;19.806;-70.704;2022-12-29T19:09:09;37.43;;;5.43;;
249;SDS011;109;19.806;-70.704;2022-12-29T19:11:35;37.30;;;6.90;;
249;SDS011;109;19.806;-70.704;2022-12-29T19:14:02;57.97;;;6.80;;
249;SDS011;109;19.806;-70.704;2022-12-29T19:16:28;39.20;;;5.90;;
249;SDS011;109;19.806;-70.704;2022-12-29T19:18:55;48.47;;;7.80;;